createdAt,value
2017-01-01T00:00:34.078Z,5.27
2017-01-01T00:03:27.311Z,5.26
2017-01-01T00:12:07.189Z,5.23
2017-01-01T00:15:00.516Z,5.22
2017-01-01T00:17:53.770Z,5.22
2017-01-01T00:20:46.934Z,5.20
2017-01-01T00:26:33.725Z,5.19
2017-01-01T00:29:26.968Z,5.19
2017-01-01T00:32:20.368Z,5.18
2017-01-01T00:35:13.574Z,5.18
2017-01-01T00:38:06.985Z,5.18
2017-01-01T00:41:00.221Z,5.18
2017-01-01T00:43:53.922Z,5.17
2017-01-01T00:46:47.186Z,5.17
2017-01-01T00:49:40.431Z,5.16
2017-01-01T00:52:33.598Z,5.15
2017-01-01T00:58:20.074Z,5.15
2017-01-01T01:01:13.402Z,5.14
2017-01-01T01:04:06.665Z,5.14
2017-01-01T01:06:59.961Z,5.12
2017-01-01T01:09:53.122Z,5.11
2017-01-01T01:12:46.350Z,5.10
2017-01-01T01:15:39.584Z,5.09
2017-01-01T01:18:32.765Z,5.09
2017-01-01T01:21:26.407Z,5.09
2017-01-01T01:24:19.847Z,5.08
2017-01-01T01:27:13.480Z,5.08
2017-01-01T01:32:59.894Z,5.09
2017-01-01T01:38:46.328Z,5.10
2017-01-01T01:41:39.442Z,5.11
2017-01-01T01:47:26.019Z,5.13
2017-01-01T01:53:12.527Z,5.15
2017-01-01T01:56:05.831Z,5.15
2017-01-01T02:01:52.375Z,5.17
2017-01-01T02:10:31.980Z,5.17
2017-01-01T02:13:25.191Z,5.17
2017-01-01T02:16:19.441Z,5.19
2017-01-01T02:22:04.843Z,5.20
2017-01-01T02:24:58.066Z,5.19
2017-01-01T02:30:44.511Z,5.21
2017-01-01T02:39:24.127Z,5.23
2017-01-01T02:42:17.340Z,5.24
2017-01-01T02:45:10.494Z,5.23
2017-01-01T02:48:04.121Z,5.24
2017-01-01T02:50:57.347Z,5.24
2017-01-01T02:56:43.766Z,5.24
2017-01-01T02:59:36.898Z,5.24
2017-01-01T03:02:30.220Z,5.23
2017-01-01T03:05:23.329Z,5.22
2017-01-01T03:08:16.568Z,5.21
2017-01-01T03:11:09.654Z,5.22
2017-01-01T03:14:02.745Z,5.22
2017-01-01T03:16:55.909Z,5.22
2017-01-01T03:19:49.131Z,5.22
2017-01-01T03:22:42.253Z,5.23
2017-01-01T03:28:28.587Z,5.23
2017-01-01T03:34:14.957Z,5.22
2017-01-01T03:37:08.183Z,5.22
2017-01-01T03:42:54.615Z,5.21
2017-01-01T03:45:47.880Z,5.22
2017-01-01T03:48:41.031Z,5.24
2017-01-01T03:51:34.239Z,5.24
2017-01-01T03:57:21.049Z,5.24
2017-01-01T04:00:14.253Z,5.23
2017-01-01T04:03:07.500Z,5.24
2017-01-01T04:06:00.591Z,5.25
2017-01-01T04:08:53.790Z,5.25
2017-01-01T04:11:47.021Z,5.26
2017-01-01T04:14:40.287Z,5.26
2017-01-01T04:26:13.272Z,5.29
2017-01-01T04:29:06.425Z,5.30
2017-01-01T04:34:52.813Z,5.32
2017-01-01T04:37:46.104Z,5.33
2017-01-01T04:40:39.288Z,5.34
2017-01-01T04:43:33.533Z,5.35
2017-01-01T04:46:25.735Z,5.36
2017-01-01T04:49:19.031Z,5.36
2017-01-01T04:52:12.205Z,5.38
2017-01-01T04:55:05.363Z,5.38
2017-01-01T04:57:58.599Z,5.39
2017-01-01T05:00:51.863Z,5.39
2017-01-01T05:03:46.145Z,5.40
2017-01-01T05:06:38.238Z,5.40
2017-01-01T05:12:24.638Z,5.38
2017-01-01T05:15:17.906Z,5.37
2017-01-01T05:18:11.064Z,5.35
2017-01-01T05:21:04.221Z,5.33
2017-01-01T05:23:58.484Z,5.33
2017-01-01T05:26:50.622Z,5.33
2017-01-01T05:32:37.022Z,5.27
2017-01-01T05:38:23.529Z,5.20
2017-01-01T05:47:03.707Z,5.08
2017-01-01T05:49:56.835Z,5.05
2017-01-01T05:52:49.988Z,5.02
2017-01-01T05:55:43.189Z,4.97
2017-01-01T05:58:36.471Z,4.95
2017-01-01T06:01:29.724Z,4.92
2017-01-01T06:04:22.913Z,4.88
2017-01-01T06:10:09.264Z,4.80
2017-01-01T06:13:02.370Z,4.76
2017-01-01T06:18:50.299Z,4.68
2017-01-01T06:21:42.421Z,4.63
2017-01-01T06:24:35.618Z,4.60
2017-01-01T06:27:28.642Z,4.57
2017-01-01T06:30:21.801Z,4.55
2017-01-01T06:33:14.709Z,4.52
2017-01-01T06:41:54.503Z,4.44
2017-01-01T06:44:47.718Z,4.41
2017-01-01T06:47:40.909Z,4.37
2017-01-01T06:50:33.883Z,4.33
2017-01-01T06:56:21.128Z,4.26
2017-01-01T06:59:13.238Z,4.24
2017-01-01T07:02:06.323Z,4.21
2017-01-01T07:04:59.307Z,4.18
2017-01-01T07:07:52.431Z,4.16
2017-01-01T07:10:45.389Z,4.12
2017-01-01T07:13:38.479Z,4.11
2017-01-01T07:22:18.150Z,4.06
2017-01-01T07:28:04.488Z,4.03
2017-01-01T07:30:57.536Z,4.02
2017-01-01T07:36:43.733Z,3.98
2017-01-01T07:39:37.193Z,3.98
2017-01-01T07:42:30.269Z,3.98
2017-01-01T07:45:23.396Z,3.97
2017-01-01T07:48:16.492Z,3.97
2017-01-01T07:51:09.521Z,3.97
2017-01-01T07:54:02.604Z,3.98
2017-01-01T07:56:55.803Z,3.97
2017-01-01T07:59:48.954Z,3.97
2017-01-01T08:05:35.162Z,4.02
2017-01-01T08:08:28.278Z,4.06
2017-01-01T08:11:21.502Z,4.08
2017-01-01T08:14:14.607Z,4.11
2017-01-01T08:17:07.804Z,4.13
2017-01-01T08:20:00.987Z,4.18
2017-01-01T08:22:54.090Z,4.24
2017-01-01T08:25:47.186Z,4.30
2017-01-01T08:28:40.874Z,4.35
2017-01-01T08:31:33.966Z,4.41
2017-01-01T08:34:27.121Z,4.47
2017-01-01T08:37:20.410Z,4.53
2017-01-01T08:40:13.495Z,4.58
2017-01-01T08:43:06.710Z,4.63
2017-01-01T08:46:00.025Z,4.67
2017-01-01T08:48:54.077Z,4.70
2017-01-01T08:51:46.255Z,4.73
2017-01-01T08:54:39.440Z,4.77
2017-01-01T08:57:32.651Z,4.81
2017-01-01T09:00:25.905Z,4.90
2017-01-01T09:03:19.135Z,5.00
2017-01-01T09:17:45.336Z,5.22
2017-01-01T09:20:38.599Z,5.22
2017-01-01T09:23:31.765Z,5.25
2017-01-01T09:26:25.102Z,5.26
2017-01-01T09:29:18.368Z,5.28
2017-01-01T09:35:04.796Z,5.52
2017-01-01T09:37:58.150Z,5.90
2017-01-01T09:40:51.592Z,6.39
2017-01-01T09:43:45.191Z,6.86
2017-01-01T09:46:38.673Z,7.09
2017-01-01T09:49:32.142Z,7.02
2017-01-01T09:55:18.712Z,6.67
2017-01-01T09:58:12.021Z,6.56
2017-01-01T10:03:58.770Z,6.35
2017-01-01T10:06:52.020Z,6.22
2017-01-01T10:09:45.423Z,6.14
2017-01-01T10:12:38.640Z,6.13
2017-01-01T10:15:32.098Z,6.18
2017-01-01T10:18:25.408Z,6.20
2017-01-01T10:21:18.740Z,6.17
2017-01-01T10:27:05.407Z,6.14
2017-01-01T10:29:58.779Z,6.14
2017-01-01T10:32:52.118Z,6.15
2017-01-01T10:35:45.548Z,6.16
2017-01-01T10:38:38.950Z,6.16
2017-01-01T10:41:32.091Z,6.13
2017-01-01T10:44:25.440Z,6.06
2017-01-01T10:47:18.783Z,6.02
2017-01-01T10:50:12.133Z,6.01
2017-01-01T10:53:05.465Z,5.99
2017-01-01T10:55:58.775Z,5.99
2017-01-01T10:58:52.123Z,5.99
2017-01-01T11:01:45.507Z,6.00
2017-01-01T11:04:38.769Z,5.99
2017-01-01T11:19:05.352Z,5.95
2017-01-01T11:21:59.025Z,5.96
2017-01-01T11:24:52.179Z,5.97
2017-01-01T11:27:46.476Z,5.97
2017-01-01T11:30:38.858Z,5.99
2017-01-01T11:33:32.397Z,6.02
2017-01-01T11:36:25.700Z,6.06
2017-01-01T11:39:19.113Z,6.09
2017-01-01T11:42:12.522Z,6.09
2017-01-01T11:45:05.915Z,6.10
2017-01-01T11:47:59.295Z,6.10
2017-01-01T11:50:52.822Z,6.10
2017-01-01T11:53:46.068Z,6.12
2017-01-01T11:56:39.389Z,6.11
2017-01-01T12:02:25.990Z,6.10
2017-01-01T12:05:19.320Z,6.11
2017-01-01T12:08:12.612Z,6.13
2017-01-01T12:13:59.155Z,6.11
2017-01-01T12:16:52.503Z,6.05
2017-01-01T12:19:45.820Z,6.03
2017-01-01T12:22:39.094Z,6.00
2017-01-01T12:28:25.713Z,5.95
2017-01-01T12:31:19.016Z,5.95
2017-01-01T12:34:12.385Z,5.94
2017-01-01T12:37:05.703Z,5.94
2017-01-01T12:39:58.996Z,5.93
2017-01-01T12:45:45.364Z,5.91
2017-01-01T12:48:38.640Z,5.89
2017-01-01T12:51:31.993Z,5.88
2017-01-01T12:54:25.255Z,5.88
2017-01-01T12:57:18.440Z,5.87
2017-01-01T13:00:11.731Z,5.84
2017-01-01T13:08:51.552Z,5.85
2017-01-01T13:11:44.859Z,5.84
2017-01-01T13:17:31.449Z,5.83
2017-01-01T13:23:17.879Z,5.80
2017-01-01T13:26:11.137Z,5.77
2017-01-01T13:29:04.552Z,5.76
2017-01-01T13:31:57.905Z,5.76
2017-01-01T13:37:44.500Z,5.72
2017-01-01T13:40:37.743Z,5.70
2017-01-01T13:43:31.061Z,5.70
2017-01-01T13:46:24.313Z,5.69
2017-01-01T13:49:17.493Z,5.68
2017-01-01T13:52:10.738Z,5.67
2017-01-01T13:55:03.960Z,5.66
2017-01-01T13:57:57.127Z,5.65
2017-01-01T14:00:50.362Z,5.64
2017-01-01T14:06:36.885Z,5.59
2017-01-01T14:12:23.749Z,5.57
2017-01-01T14:15:16.874Z,5.57
2017-01-01T14:18:10.054Z,5.56
2017-01-01T14:21:03.295Z,5.55
2017-01-01T14:23:56.536Z,5.53
2017-01-01T14:26:49.787Z,5.52
2017-01-01T14:41:16.006Z,5.46
2017-01-01T14:44:09.173Z,5.43
2017-01-01T14:49:55.570Z,5.42
2017-01-01T14:52:48.808Z,5.40
2017-01-01T15:01:28.267Z,5.36
2017-01-01T15:04:21.552Z,5.36
2017-01-01T15:07:14.823Z,5.34
2017-01-01T15:10:07.815Z,5.34
2017-01-01T15:15:54.182Z,5.36
2017-01-01T15:24:33.710Z,5.34
2017-01-01T15:30:19.984Z,5.32
2017-01-01T15:38:59.537Z,5.31
2017-01-01T15:44:46.272Z,5.30
2017-01-01T15:47:39.573Z,5.30
2017-01-01T15:53:25.944Z,5.26
2017-01-01T15:56:19.214Z,5.24
2017-01-01T15:59:12.432Z,5.21
2017-01-01T16:02:05.548Z,5.20
2017-01-01T16:07:52.115Z,5.14
2017-01-01T16:10:45.270Z,5.12
2017-01-01T16:13:38.430Z,5.08
2017-01-01T16:16:31.626Z,5.05
2017-01-01T16:19:25.228Z,5.03
2017-01-01T16:22:18.346Z,4.99
2017-01-01T16:25:11.486Z,4.97
2017-01-01T16:28:04.712Z,4.94
2017-01-01T16:33:51.053Z,4.91
2017-01-01T16:36:44.252Z,4.88
2017-01-01T16:39:37.334Z,4.85
2017-01-01T16:42:30.571Z,4.83
2017-01-01T16:45:23.873Z,4.81
2017-01-01T16:48:17.060Z,4.78
2017-01-01T16:54:03.741Z,4.72
2017-01-01T16:56:56.837Z,4.71
2017-01-01T16:59:50.067Z,4.71
2017-01-01T17:08:29.571Z,4.66
2017-01-01T17:11:22.756Z,4.65
2017-01-01T17:25:48.809Z,4.62
2017-01-01T17:28:42.006Z,4.62
2017-01-01T17:31:35.091Z,4.63
2017-01-01T17:37:21.352Z,4.65
2017-01-01T17:40:14.563Z,4.66
2017-01-01T17:46:01.838Z,4.65
2017-01-01T17:48:54.456Z,4.63
2017-01-01T17:51:47.520Z,4.61
2017-01-01T17:54:40.727Z,4.61
2017-01-01T17:57:33.931Z,4.62
2017-01-01T18:03:20.175Z,4.69
2017-01-01T18:06:13.288Z,4.70
2017-01-01T18:09:06.838Z,4.71
2017-01-01T18:14:53.242Z,4.76
2017-01-01T18:17:46.379Z,4.77
2017-01-01T18:23:33.655Z,4.77
2017-01-01T18:26:25.851Z,4.77
2017-01-01T18:32:12.122Z,4.76
2017-01-01T18:35:05.340Z,4.75
2017-01-01T18:37:58.438Z,4.74
2017-01-01T18:40:51.444Z,4.75
2017-01-01T18:46:37.630Z,4.74
2017-01-01T18:49:30.675Z,4.73
2017-01-01T18:52:23.844Z,4.72
2017-01-01T18:55:18.106Z,4.72
2017-01-01T18:58:10.165Z,4.70
2017-01-01T19:01:03.433Z,4.67
2017-01-01T19:03:56.607Z,4.63
2017-01-01T19:09:43.281Z,4.56
2017-01-01T19:12:36.247Z,4.54
2017-01-01T19:18:22.272Z,4.51
2017-01-01T19:21:15.381Z,4.49
2017-01-01T19:24:08.553Z,4.44
2017-01-01T19:27:01.780Z,4.42
2017-01-01T19:41:27.641Z,4.35
2017-01-01T19:44:20.756Z,4.37
2017-01-01T19:50:07.614Z,4.39
2017-01-01T19:53:00.756Z,4.38
2017-01-01T19:58:47.240Z,4.36
2017-01-01T20:01:40.455Z,4.34
2017-01-01T20:04:33.536Z,4.28
2017-01-01T20:10:20.774Z,4.20
2017-01-01T20:13:12.802Z,4.18
2017-01-01T20:16:05.894Z,4.16
2017-01-01T20:18:59.455Z,4.11
2017-01-01T20:21:52.462Z,4.09
2017-01-01T20:24:46.704Z,4.05
2017-01-01T20:27:38.812Z,4.03
2017-01-01T20:30:32.291Z,3.99
2017-01-01T20:33:25.428Z,3.97
2017-01-01T20:36:18.364Z,3.93
2017-01-01T20:39:11.259Z,3.88
2017-01-01T20:42:04.432Z,3.83
2017-01-01T20:44:57.421Z,3.79
2017-01-01T20:50:44.593Z,3.73
2017-01-01T20:56:30.115Z,3.65
2017-01-01T20:59:23.088Z,3.61
2017-01-01T21:05:09.211Z,3.53
2017-01-01T21:08:02.264Z,3.50
2017-01-01T21:10:55.397Z,3.44
2017-01-01T21:13:48.859Z,3.41
2017-01-01T21:16:42.941Z,3.37
2017-01-01T21:19:35.036Z,3.33
2017-01-01T21:25:21.035Z,3.22
2017-01-01T21:31:07.223Z,3.13
2017-01-01T21:39:46.371Z,3.10
2017-01-01T21:42:39.531Z,3.07
2017-01-01T21:45:32.483Z,3.05
2017-01-01T21:48:26.538Z,3.02
2017-01-01T21:51:18.472Z,3.00
2017-01-01T21:54:11.516Z,2.98
2017-01-01T21:57:04.631Z,2.94
2017-01-01T21:59:57.826Z,2.93
2017-01-01T22:08:36.925Z,2.91
2017-01-01T22:11:29.968Z,2.89
2017-01-01T22:14:23.015Z,2.88
2017-01-01T22:25:55.461Z,2.92
2017-01-01T22:31:41.620Z,2.90
2017-01-01T22:34:34.626Z,2.91
2017-01-01T22:37:27.625Z,2.90
2017-01-01T22:43:13.761Z,2.87
2017-01-01T22:46:06.886Z,2.86
2017-01-01T22:48:59.956Z,2.83
2017-01-01T22:54:46.140Z,2.83
2017-01-01T22:57:39.363Z,2.83
2017-01-01T23:00:32.475Z,2.83
2017-01-01T23:03:25.507Z,2.82
2017-01-01T23:06:18.734Z,2.82
2017-01-01T23:12:04.798Z,2.80
2017-01-01T23:17:51.036Z,2.82
2017-01-01T23:20:44.204Z,2.82
2017-01-01T23:23:37.398Z,2.81
2017-01-01T23:26:30.868Z,2.80
2017-01-01T23:29:23.831Z,2.80
2017-01-01T23:32:16.929Z,2.81
2017-01-01T23:35:10.105Z,2.80
2017-01-01T23:38:03.281Z,2.78
2017-01-01T23:40:56.444Z,2.79
2017-01-01T23:43:49.596Z,2.79
2017-01-01T23:46:42.637Z,2.78
2017-01-01T23:49:35.838Z,2.75
2017-01-01T23:52:28.941Z,2.72
2017-01-01T23:58:15.192Z,2.70
